Liege, Belgium
Current Conditions -  °F | °C
As of 10:50 AM on Monday 22 Dec 2014 (Local Time) from EBLG Reporting Station
Drizzle Drizzle  
Wind Chill: 36°   Ceiling: 700
Heat Index: 45°   Visibility: 2.8mi
Dew Point: 43°   Wind: 24mph
Humidity: 93%   Direction: 210°SSW
Pressure: 30.18"   Gusts: NA
Location:  50.62°N, 5.6°E
Report Text: EBLG 220950Z 21021KT 4500 BR -DZ SCT005 BKN007 07/06 Q1022 TEMPO 22020G32KT 2500 -DZRA BKN006
Loading
Personal Weather Stations






























Interactive Weather Map New forecast layout! Learn more

10-Day Weather Forecast

Advertisements
Track Severe Weather on mobile